createdAt,value
2022-10-21T00:03:11.362Z,11.85
2022-10-21T00:07:14.453Z,11.84
2022-10-21T00:11:17.799Z,11.82
2022-10-21T00:15:21.307Z,11.81
2022-10-21T00:19:25.945Z,11.81
2022-10-21T00:23:29.442Z,11.80
2022-10-21T00:27:33.242Z,11.80
2022-10-21T00:31:36.363Z,11.75
2022-10-21T00:35:41.611Z,11.72
2022-10-21T00:39:45.802Z,11.65
2022-10-21T00:44:00.572Z,11.57
2022-10-21T00:48:07.879Z,11.50
2022-10-21T00:52:16.214Z,11.42
2022-10-21T00:56:24.469Z,11.38
2022-10-21T01:00:27.933Z,11.36
2022-10-21T01:04:31.532Z,11.36
2022-10-21T01:08:36.906Z,11.38
2022-10-21T01:12:51.004Z,11.39
2022-10-21T01:17:11.549Z,11.41
2022-10-21T01:21:35.128Z,11.41
2022-10-21T01:26:10.584Z,11.37
2022-10-21T01:30:39.614Z,11.33
2022-10-21T01:34:51.408Z,11.26
2022-10-21T01:39:04.833Z,11.21
2022-10-21T01:43:17.866Z,11.17
2022-10-21T01:47:27.226Z,11.14
2022-10-21T01:51:32.007Z,11.13
2022-10-21T01:55:37.101Z,11.12
2022-10-21T01:59:42.933Z,11.11
2022-10-21T02:03:50.938Z,11.07
2022-10-21T02:07:54.596Z,11.05
2022-10-21T02:12:03.652Z,11.04
2022-10-21T02:16:10.819Z,11.04
2022-10-21T02:20:18.029Z,11.03
2022-10-21T02:24:28.926Z,11.03
2022-10-21T02:28:33.019Z,11.00
2022-10-21T02:32:40.894Z,10.99
2022-10-21T02:36:55.968Z,10.94
2022-10-21T02:41:03.422Z,10.90
2022-10-21T02:45:08.885Z,10.86
2022-10-21T02:49:13.622Z,10.83
2022-10-21T02:53:18.061Z,10.81
2022-10-21T02:57:21.555Z,10.78
2022-10-21T03:01:25.109Z,10.76
2022-10-21T03:05:28.277Z,10.76
2022-10-21T03:09:33.401Z,10.78
2022-10-21T03:13:37.015Z,10.79
2022-10-21T03:17:42.300Z,10.84
2022-10-21T03:21:46.153Z,10.87
2022-10-21T03:25:50.918Z,10.92
2022-10-21T03:29:54.046Z,10.96
2022-10-21T03:33:57.475Z,11.01
2022-10-21T03:38:00.854Z,11.08
2022-10-21T03:42:06.292Z,11.14
2022-10-21T03:46:09.329Z,11.18
2022-10-21T03:50:15.104Z,11.22
2022-10-21T03:54:22.889Z,11.24
2022-10-21T03:58:28.993Z,11.31
2022-10-21T04:02:32.412Z,11.35
2022-10-21T04:06:35.630Z,11.39
2022-10-21T04:10:39.364Z,11.47
2022-10-21T04:14:44.107Z,11.53
2022-10-21T04:18:48.164Z,11.59
2022-10-21T04:22:51.160Z,11.67
2022-10-21T04:26:54.132Z,11.73
2022-10-21T04:30:59.097Z,11.78
2022-10-21T04:35:02.616Z,11.83
2022-10-21T04:39:08.166Z,11.87
2022-10-21T04:43:11.731Z,11.91
2022-10-21T04:47:16.537Z,11.94
2022-10-21T04:51:20.699Z,11.92
2022-10-21T04:55:24.318Z,11.92
2022-10-21T04:59:27.914Z,11.88
2022-10-21T05:03:34.208Z,11.84
2022-10-21T05:07:38.228Z,11.79
2022-10-21T05:11:41.776Z,11.74
2022-10-21T05:15:45.253Z,11.71
2022-10-21T05:19:49.755Z,11.69
2022-10-21T05:23:53.218Z,11.64
2022-10-21T05:27:56.227Z,11.63
2022-10-21T05:31:59.582Z,11.61
2022-10-21T05:36:09.278Z,11.60
2022-10-21T05:40:13.276Z,11.57
2022-10-21T05:44:17.097Z,11.56
2022-10-21T05:48:20.355Z,11.54
2022-10-21T05:52:25.297Z,11.56
2022-10-21T05:56:28.821Z,11.54
2022-10-21T06:00:32.361Z,11.54
2022-10-21T06:04:38.653Z,11.56
2022-10-21T06:08:44.140Z,11.58
2022-10-21T06:12:47.653Z,11.58
2022-10-21T06:16:51.102Z,11.61
2022-10-21T06:20:54.232Z,11.62
2022-10-21T06:24:59.253Z,11.67
2022-10-21T06:29:02.669Z,11.71
2022-10-21T06:33:05.830Z,11.74
2022-10-21T06:37:08.981Z,11.80
2022-10-21T06:41:15.961Z,11.85
2022-10-21T06:45:19.415Z,11.88
2022-10-21T06:49:23.229Z,11.94
2022-10-21T06:53:26.380Z,11.99
2022-10-21T06:57:31.464Z,12.07
2022-10-21T07:06:21.183Z,12.19
2022-10-21T07:10:24.293Z,12.31
2022-10-21T07:14:29.291Z,12.46
2022-10-21T07:18:32.699Z,12.59
2022-10-21T07:22:36.269Z,12.75
2022-10-21T07:26:40.444Z,12.92
2022-10-21T07:30:46.305Z,13.08
2022-10-21T07:34:49.776Z,13.28
2022-10-21T07:38:54.855Z,13.47
2022-10-21T07:42:58.836Z,13.66
2022-10-21T07:47:03.808Z,13.84
2022-10-21T07:51:09.826Z,13.98
2022-10-21T07:55:13.438Z,14.06
2022-10-21T07:59:18.588Z,14.12
2022-10-21T08:03:23.735Z,14.14
2022-10-21T08:07:27.773Z,14.12
2022-10-21T08:11:32.925Z,14.16
2022-10-21T08:15:36.721Z,14.20
2022-10-21T08:19:41.203Z,14.32
2022-10-21T08:23:44.396Z,14.46
2022-10-21T08:27:47.817Z,14.64
2022-10-21T08:31:51.291Z,14.82
2022-10-21T08:35:56.217Z,15.00
2022-10-21T08:39:59.566Z,15.15
2022-10-21T08:44:07.740Z,15.31
2022-10-21T08:48:16.054Z,15.43
2022-10-21T08:52:24.949Z,15.58
2022-10-21T08:56:31.837Z,15.71
2022-10-21T09:00:39.921Z,15.85
2022-10-21T09:04:50.388Z,15.92
2022-10-21T09:09:18.355Z,16.07
2022-10-21T09:13:32.026Z,16.21
2022-10-21T09:17:58.239Z,16.35
2022-10-21T09:22:34.304Z,16.47
2022-10-21T09:26:42.461Z,16.61
2022-10-21T09:30:47.337Z,16.75
2022-10-21T09:34:57.446Z,16.88
2022-10-21T09:39:07.789Z,17.12
2022-10-21T09:43:20.754Z,17.35
2022-10-21T09:47:25.322Z,17.61
2022-10-21T09:51:33.923Z,17.79
2022-10-21T09:55:40.683Z,17.85
2022-10-21T10:00:04.018Z,17.93
2022-10-21T10:04:12.901Z,17.94
2022-10-21T10:08:38.213Z,17.94
2022-10-21T10:12:41.524Z,17.92
2022-10-21T10:16:46.003Z,17.86
2022-10-21T10:21:06.352Z,17.72
2022-10-21T10:25:19.027Z,17.60
2022-10-21T10:29:27.244Z,17.49
2022-10-21T10:33:35.827Z,17.48
2022-10-21T10:37:39.577Z,17.41
2022-10-21T10:41:48.367Z,17.41
2022-10-21T10:45:55.310Z,17.40
2022-10-21T10:50:01.330Z,17.37
2022-10-21T10:54:18.556Z,17.39
2022-10-21T10:58:25.480Z,17.39
2022-10-21T11:02:39.779Z,17.31
2022-10-21T11:06:50.207Z,17.34
2022-10-21T11:10:58.708Z,17.33
2022-10-21T11:15:02.554Z,17.34
2022-10-21T11:19:15.721Z,17.46
2022-10-21T11:23:43.779Z,17.60
2022-10-21T11:28:08.905Z,17.76
2022-10-21T11:32:23.867Z,17.88
2022-10-21T11:36:37.178Z,17.97
2022-10-21T11:40:43.334Z,18.01
2022-10-21T11:45:01.599Z,18.03
2022-10-21T11:49:21.310Z,18.12
2022-10-21T11:53:39.924Z,18.18
2022-10-21T11:57:54.574Z,18.30
2022-10-21T12:02:07.699Z,18.38
2022-10-21T12:06:26.853Z,18.42
2022-10-21T12:10:36.102Z,18.47
2022-10-21T12:14:45.063Z,18.55
2022-10-21T12:18:52.699Z,18.65
2022-10-21T12:23:01.696Z,18.72
2022-10-21T12:27:14.413Z,18.78
2022-10-21T12:31:34.237Z,18.76
2022-10-21T12:35:50.262Z,18.78
2022-10-21T12:40:11.726Z,18.73
2022-10-21T12:44:24.802Z,18.66
2022-10-21T12:48:34.525Z,18.54
2022-10-21T12:52:39.498Z,18.39
2022-10-21T12:56:47.206Z,18.29
2022-10-21T13:00:59.057Z,18.25
2022-10-21T13:05:03.579Z,18.23
2022-10-21T13:09:46.857Z,18.23
2022-10-21T13:13:50.907Z,18.29
2022-10-21T13:17:56.072Z,18.27
2022-10-21T13:22:11.291Z,18.33
2022-10-21T13:26:22.325Z,18.37
2022-10-21T13:30:30.400Z,18.44
2022-10-21T13:34:33.655Z,18.50
2022-10-21T13:38:47.453Z,18.57
2022-10-21T13:42:58.334Z,18.63
2022-10-21T13:47:19.844Z,18.68
2022-10-21T13:51:26.401Z,18.69
2022-10-21T13:55:30.919Z,18.69
2022-10-21T13:59:35.391Z,18.69
2022-10-21T14:03:38.548Z,18.69
2022-10-21T14:07:42.761Z,18.67
2022-10-21T14:11:51.580Z,18.62
2022-10-21T14:15:56.283Z,18.51
2022-10-21T14:20:09.254Z,18.36
2022-10-21T14:24:25.916Z,18.27
2022-10-21T14:28:31.316Z,18.15
2022-10-21T14:32:35.613Z,17.99
2022-10-21T14:37:02.633Z,17.88
2022-10-21T14:41:09.359Z,17.81
2022-10-21T14:45:18.368Z,17.77
2022-10-21T14:49:27.412Z,17.73
2022-10-21T14:53:33.878Z,17.72
2022-10-21T14:57:42.244Z,17.71
2022-10-21T15:01:47.763Z,17.68
2022-10-21T15:05:50.802Z,17.61
2022-10-21T15:10:00.051Z,17.53
2022-10-21T15:14:24.534Z,17.44
2022-10-21T15:18:31.552Z,17.33
2022-10-21T15:22:38.674Z,17.25
2022-10-21T15:26:43.355Z,17.18
2022-10-21T15:30:46.461Z,17.11
2022-10-21T15:34:53.991Z,17.00
2022-10-21T15:38:57.625Z,16.90
2022-10-21T15:43:00.782Z,16.79
2022-10-21T15:47:08.800Z,16.68
2022-10-21T15:51:13.392Z,16.58
2022-10-21T15:55:17.545Z,16.47
2022-10-21T15:59:22.795Z,16.35
2022-10-21T16:03:25.917Z,16.20
2022-10-21T16:07:33.194Z,16.06
2022-10-21T16:11:41.057Z,15.90
2022-10-21T16:15:44.609Z,15.71
2022-10-21T16:19:48.072Z,15.57
2022-10-21T16:23:53.695Z,15.46
2022-10-21T16:27:57.025Z,15.31
2022-10-21T16:32:00.514Z,15.20
2022-10-21T16:36:05.105Z,15.08
2022-10-21T16:40:19.999Z,14.97
2022-10-21T16:44:23.125Z,14.85
2022-10-21T16:48:27.048Z,14.73
2022-10-21T16:52:30.425Z,14.61
2022-10-21T16:56:35.588Z,14.48
2022-10-21T17:00:39.116Z,14.35
2022-10-21T17:04:43.044Z,14.25
2022-10-21T17:08:46.066Z,14.14
2022-10-21T17:12:57.394Z,14.06
2022-10-21T17:17:00.722Z,13.97
2022-10-21T17:21:03.896Z,13.89
2022-10-21T17:25:07.625Z,13.81
2022-10-21T17:29:13.016Z,13.78
2022-10-21T17:33:16.368Z,13.71
2022-10-21T17:37:20.287Z,13.66
2022-10-21T17:41:23.755Z,13.57
2022-10-21T17:45:28.695Z,13.59
2022-10-21T17:49:31.683Z,13.57
2022-10-21T17:53:35.039Z,13.55
2022-10-21T17:57:38.419Z,13.51
2022-10-21T18:01:43.873Z,13.48
2022-10-21T18:05:48.494Z,13.43
2022-10-21T18:09:52.053Z,13.36
2022-10-21T18:13:56.227Z,13.29
2022-10-21T18:18:01.282Z,13.23
2022-10-21T18:22:05.527Z,13.14
2022-10-21T18:26:12.288Z,13.11
2022-10-21T18:30:15.751Z,13.09
2022-10-21T18:34:21.058Z,13.08
2022-10-21T18:38:24.165Z,13.08
2022-10-21T18:42:27.618Z,13.10
2022-10-21T18:46:31.803Z,13.12
2022-10-21T18:50:38.378Z,13.13
2022-10-21T18:54:41.453Z,13.16
2022-10-21T19:03:11.970Z,13.27
2022-10-21T19:07:17.042Z,13.36
2022-10-21T19:11:20.470Z,13.47
2022-10-21T19:15:23.835Z,13.56
2022-10-21T19:19:27.204Z,13.61
2022-10-21T19:23:33.727Z,13.70
2022-10-21T19:27:37.731Z,13.73
2022-10-21T19:31:41.592Z,13.72
2022-10-21T19:35:45.383Z,13.73
2022-10-21T19:39:50.631Z,13.72
2022-10-21T19:43:58.594Z,13.72
2022-10-21T19:48:02.606Z,13.70
2022-10-21T19:52:06.240Z,13.68
2022-10-21T19:56:10.865Z,13.68
2022-10-21T20:00:15.895Z,13.65
2022-10-21T20:04:19.400Z,13.67
2022-10-21T20:08:22.662Z,13.69
2022-10-21T20:12:27.759Z,13.69
2022-10-21T20:16:33.361Z,13.71
2022-10-21T20:20:37.084Z,13.74
2022-10-21T20:24:45.485Z,13.74
2022-10-21T20:28:51.600Z,13.76
2022-10-21T20:32:55.141Z,13.75
2022-10-21T20:36:58.179Z,13.76
2022-10-21T20:41:03.984Z,13.75
2022-10-21T20:45:09.803Z,13.75
2022-10-21T20:49:13.580Z,13.72
2022-10-21T20:53:17.023Z,13.75
2022-10-21T20:57:20.400Z,13.74
2022-10-21T21:01:27.081Z,13.77
2022-10-21T21:05:30.600Z,13.79
2022-10-21T21:10:03.980Z,13.79
2022-10-21T21:13:58.034Z,13.80
2022-10-21T21:18:04.149Z,13.80
2022-10-21T21:22:07.718Z,13.74
2022-10-21T21:26:13.973Z,13.75
2022-10-21T21:30:17.604Z,13.74
2022-10-21T21:34:21.963Z,13.71
2022-10-21T21:38:25.533Z,13.68
2022-10-21T21:42:28.984Z,13.67
2022-10-21T21:46:32.850Z,13.63
2022-10-21T21:50:37.308Z,13.63
2022-10-21T21:54:41.030Z,13.61
2022-10-21T21:58:44.498Z,13.60
2022-10-21T22:02:48.214Z,13.60
2022-10-21T22:06:52.933Z,13.60
2022-10-21T22:10:55.961Z,13.59
2022-10-21T22:14:59.394Z,13.58
2022-10-21T22:19:03.312Z,13.54
2022-10-21T22:23:08.453Z,13.55
2022-10-21T22:27:11.599Z,13.48
2022-10-21T22:31:17.762Z,13.49
2022-10-21T22:35:20.941Z,13.49
2022-10-21T22:39:26.143Z,13.49
2022-10-21T22:43:29.255Z,13.47
2022-10-21T22:47:32.311Z,13.46
2022-10-21T22:51:35.833Z,13.43
2022-10-21T22:55:40.975Z,13.45
2022-10-21T22:59:44.319Z,13.45
2022-10-21T23:03:47.787Z,13.48
2022-10-21T23:07:53.719Z,13.48
2022-10-21T23:11:58.091Z,13.49
2022-10-21T23:16:01.535Z,13.47
2022-10-21T23:20:05.699Z,13.46
2022-10-21T23:24:09.717Z,13.50
2022-10-21T23:28:14.163Z,13.50
2022-10-21T23:32:17.735Z,13.52
2022-10-21T23:36:21.189Z,13.53
2022-10-21T23:40:24.776Z,13.52
2022-10-21T23:44:30.112Z,13.55
2022-10-21T23:48:33.534Z,13.53
2022-10-21T23:52:37.333Z,13.54
2022-10-21T23:56:40.880Z,13.55
